createdAt,value
2023-02-24T00:02:15.029Z,101668.59
2023-02-24T00:04:41.927Z,101668.69
2023-02-24T00:07:16.898Z,101665.97
2023-02-24T00:09:44.667Z,101670.97
2023-02-24T00:12:15.476Z,101672.53
2023-02-24T00:14:44.614Z,101667.59
2023-02-24T00:17:14.629Z,101659.22
2023-02-24T00:19:41.493Z,101669.50
2023-02-24T00:22:09.055Z,101661.84
2023-02-24T00:24:36.715Z,101645.22
2023-02-24T00:27:08.334Z,101657.94
2023-02-24T00:29:37.739Z,101630.69
2023-02-24T00:32:08.154Z,101644.34
2023-02-24T00:34:37.610Z,101652.78
2023-02-24T00:37:07.104Z,101651.72
2023-02-24T00:39:35.522Z,101620.81
2023-02-24T00:42:04.880Z,101637.53
2023-02-24T00:44:34.060Z,101632.22
2023-02-24T00:47:07.015Z,101644.22
2023-02-24T00:49:36.012Z,101618.53
2023-02-24T00:52:06.619Z,101636.56
2023-02-24T00:54:38.382Z,101638.28
2023-02-24T00:57:10.253Z,101624.78
2023-02-24T00:59:38.193Z,101612.44
2023-02-24T01:02:07.215Z,101593.97
2023-02-24T01:04:34.186Z,101618.91
2023-02-24T01:07:01.548Z,101623.25
2023-02-24T01:09:31.382Z,101609.16
2023-02-24T01:12:19.640Z,101600.59
2023-02-24T01:14:48.404Z,101602.44
2023-02-24T01:17:19.374Z,101610.47
2023-02-24T01:19:49.391Z,101466.38
2023-02-24T01:22:17.725Z,101591.53
2023-02-24T01:24:45.624Z,101594.94
2023-02-24T01:27:19.793Z,101593.00
2023-02-24T01:29:51.099Z,101564.03
2023-02-24T01:32:21.875Z,101557.34
2023-02-24T01:34:52.242Z,101581.41
2023-02-24T01:37:19.702Z,101580.66
2023-02-24T01:39:47.434Z,101567.31
2023-02-24T01:42:17.176Z,101567.59
2023-02-24T01:44:43.798Z,101565.06
2023-02-24T01:47:14.197Z,101546.47
2023-02-24T01:49:46.699Z,101557.19
2023-02-24T01:52:26.417Z,101529.72
2023-02-24T01:55:06.439Z,101546.72
2023-02-24T01:57:38.661Z,101547.25
2023-02-24T02:00:31.378Z,101538.63
2023-02-24T02:03:02.753Z,101512.78
2023-02-24T02:05:29.353Z,101449.81
2023-02-24T02:07:57.378Z,101453.22
2023-02-24T02:10:24.899Z,101494.13
2023-02-24T02:12:51.502Z,101510.72
2023-02-24T02:15:20.860Z,101506.53
2023-02-24T02:18:02.800Z,101478.97
2023-02-24T02:21:04.110Z,101498.19
2023-02-24T02:23:44.348Z,101499.44
2023-02-24T02:26:25.862Z,101493.31
2023-02-24T02:29:11.074Z,101488.28
2023-02-24T02:32:05.527Z,101490.38
2023-02-24T02:34:50.409Z,101483.41
2023-02-24T02:37:33.101Z,101453.72
2023-02-24T02:40:20.022Z,101483.81
2023-02-24T02:43:04.334Z,101470.59
2023-02-24T02:45:47.718Z,101471.91
2023-02-24T02:48:25.717Z,101469.47
2023-02-24T02:50:57.354Z,101470.50
2023-02-24T02:54:00.664Z,101453.25
2023-02-24T02:56:54.425Z,101457.00
2023-02-24T02:59:26.799Z,101379.41
2023-02-24T03:02:11.567Z,101457.97
2023-02-24T03:04:48.620Z,101425.75
2023-02-24T03:07:19.838Z,101452.91
2023-02-24T03:09:51.835Z,101432.03
2023-02-24T03:12:24.318Z,101440.56
2023-02-24T03:15:00.286Z,101447.91
2023-02-24T03:17:33.113Z,101436.38
2023-02-24T03:20:16.213Z,101438.28
2023-02-24T03:22:50.357Z,101211.16
2023-02-24T03:25:25.584Z,101432.19
2023-02-24T03:27:57.286Z,101398.97
2023-02-24T03:30:40.794Z,101430.63
2023-02-24T03:33:23.862Z,101423.47
2023-02-24T03:35:52.971Z,101342.59
2023-02-24T03:38:23.286Z,101387.47
2023-02-24T03:40:51.399Z,101385.75
2023-02-24T03:43:28.225Z,101407.59
2023-02-24T03:45:55.570Z,101405.84
2023-02-24T03:48:23.830Z,101394.47
2023-02-24T03:50:50.778Z,101377.94
2023-02-24T03:53:30.598Z,101398.53
2023-02-24T03:56:01.938Z,101379.25
2023-02-24T03:58:48.603Z,101384.84
2023-02-24T04:01:34.930Z,101387.84
2023-02-24T04:04:40.073Z,101388.91
2023-02-24T04:07:09.901Z,101389.84
2023-02-24T04:09:47.743Z,101387.06
2023-02-24T04:12:30.635Z,101379.84
2023-02-24T04:15:09.116Z,101379.00
2023-02-24T04:17:44.394Z,101360.03
2023-02-24T04:20:13.606Z,101383.34
2023-02-24T04:22:43.769Z,101376.84
2023-02-24T04:25:13.878Z,101377.59
2023-02-24T04:27:44.317Z,101371.44
2023-02-24T04:30:12.411Z,101360.06
2023-02-24T04:32:44.466Z,101369.13
2023-02-24T04:35:19.387Z,101374.25
2023-02-24T04:37:46.176Z,101360.94
2023-02-24T04:40:17.615Z,101360.63
2023-02-24T04:42:49.029Z,101361.06
2023-02-24T04:45:24.150Z,101297.34
2023-02-24T04:47:56.293Z,101351.66
2023-02-24T04:50:25.956Z,101346.19
2023-02-24T04:53:07.093Z,101349.59
2023-02-24T04:55:40.140Z,101346.66
2023-02-24T04:58:14.129Z,101347.41
2023-02-24T05:00:42.030Z,101332.88
2023-02-24T05:03:13.562Z,101333.69
2023-02-24T05:05:43.004Z,101329.06
2023-02-24T05:08:15.882Z,101279.13
2023-02-24T05:10:44.752Z,101311.16
2023-02-24T05:13:19.454Z,101310.56
2023-02-24T05:15:48.007Z,101298.31
2023-02-24T05:18:19.082Z,101271.63
2023-02-24T05:21:26.677Z,101303.78
2023-02-24T05:23:54.914Z,101306.66
2023-02-24T05:26:25.609Z,101299.34
2023-02-24T05:28:54.576Z,101296.56
2023-02-24T05:31:26.284Z,101288.91
2023-02-24T05:33:56.115Z,101294.63
2023-02-24T05:36:23.175Z,101272.50
2023-02-24T05:38:56.590Z,101283.59
2023-02-24T05:41:35.725Z,101286.97
2023-02-24T05:44:08.669Z,101256.06
2023-02-24T05:46:44.689Z,101232.34
2023-02-24T05:49:27.129Z,101269.69
2023-02-24T05:51:56.371Z,101256.31
2023-02-24T05:54:28.751Z,101243.00
2023-02-24T05:57:01.298Z,101244.28
2023-02-24T05:59:32.721Z,101253.06
2023-02-24T06:02:07.176Z,101247.78
2023-02-24T06:04:45.884Z,101205.72
2023-02-24T06:07:19.885Z,101232.63
2023-02-24T06:09:50.264Z,101220.84
2023-02-24T06:12:22.005Z,101234.47
2023-02-24T06:14:53.169Z,101222.31
2023-02-24T06:17:21.031Z,101223.78
2023-02-24T06:19:53.214Z,101209.81
2023-02-24T06:22:22.833Z,101204.50
2023-02-24T06:24:49.720Z,101211.69
2023-02-24T06:27:18.837Z,101211.69
2023-02-24T06:29:50.465Z,101206.13
2023-02-24T06:32:23.792Z,101189.66
2023-02-24T06:34:53.992Z,101109.47
2023-02-24T06:37:24.581Z,101184.75
2023-02-24T06:39:56.235Z,101189.69
2023-02-24T06:42:25.896Z,101196.06
2023-02-24T06:44:52.484Z,101195.44
2023-02-24T06:47:19.082Z,101189.69
2023-02-24T06:49:45.796Z,101162.59
2023-02-24T06:52:19.072Z,101179.88
2023-02-24T06:54:52.382Z,101182.00
2023-02-24T06:57:20.450Z,101166.19
2023-02-24T06:59:48.955Z,101172.03
2023-02-24T07:02:18.672Z,101166.50
2023-02-24T07:04:45.322Z,101146.03
2023-02-24T07:07:14.524Z,101157.19
2023-02-24T07:09:47.156Z,101154.31
2023-02-24T07:12:15.611Z,101136.19
2023-02-24T07:14:42.227Z,101138.50
2023-02-24T07:17:08.868Z,101138.22
2023-02-24T07:19:37.983Z,101127.16
2023-02-24T07:22:04.944Z,101160.88
2023-02-24T07:24:36.320Z,101158.06
2023-02-24T07:27:09.468Z,101158.94
2023-02-24T07:29:37.908Z,101163.09
2023-02-24T07:32:08.707Z,101141.03
2023-02-24T07:34:41.655Z,100990.91
2023-02-24T07:37:09.728Z,101141.63
2023-02-24T07:39:39.170Z,101138.81
2023-02-24T07:42:10.237Z,101134.19
2023-02-24T07:44:39.231Z,101119.47
2023-02-24T07:47:08.131Z,101100.97
2023-02-24T07:49:36.023Z,101112.59
2023-02-24T07:52:02.628Z,101116.75
2023-02-24T07:54:30.255Z,101109.31
2023-02-24T07:56:59.619Z,101102.94
2023-02-24T07:59:32.567Z,101088.50
2023-02-24T08:02:00.626Z,101101.50
2023-02-24T08:04:30.360Z,101090.69
2023-02-24T08:06:59.107Z,101087.91
2023-02-24T08:09:46.700Z,101040.91
2023-02-24T08:12:22.664Z,101090.78
2023-02-24T08:14:52.303Z,101100.28
2023-02-24T08:17:26.588Z,101070.03
2023-02-24T08:20:21.108Z,101079.72
2023-02-24T08:22:52.287Z,101073.19
2023-02-24T08:25:25.808Z,101072.75
2023-02-24T08:28:12.792Z,101080.47
2023-02-24T08:30:46.086Z,101070.19
2023-02-24T08:33:19.756Z,101071.38
2023-02-24T08:36:00.997Z,101043.19
2023-02-24T08:38:39.908Z,101038.53
2023-02-24T08:41:11.798Z,101045.47
2023-02-24T08:43:40.269Z,100990.84
2023-02-24T08:46:13.391Z,101044.81
2023-02-24T08:48:42.505Z,101037.34
2023-02-24T08:51:28.911Z,101027.22
2023-02-24T08:54:01.740Z,101026.53
2023-02-24T08:56:34.408Z,101014.22
2023-02-24T08:59:07.561Z,101021.03
2023-02-24T09:01:37.309Z,101008.03
2023-02-24T09:04:12.908Z,101003.94
2023-02-24T09:06:47.343Z,100999.91
2023-02-24T09:09:18.043Z,100989.38
2023-02-24T09:11:50.927Z,100992.41
2023-02-24T09:14:29.106Z,100983.31
2023-02-24T09:17:15.095Z,100981.34
2023-02-24T09:19:47.249Z,100988.56
2023-02-24T09:22:21.790Z,100985.41
2023-02-24T09:24:51.230Z,100940.75
2023-02-24T09:27:20.202Z,100972.28
2023-02-24T09:29:49.650Z,100803.44
2023-02-24T09:32:16.357Z,100952.81
2023-02-24T09:34:46.417Z,100961.31
2023-02-24T09:37:26.356Z,100948.53
2023-02-24T09:39:53.597Z,100950.94
2023-02-24T09:42:34.032Z,100965.00
2023-02-24T09:45:11.552Z,100946.88
2023-02-24T09:47:55.197Z,100949.22
2023-02-24T09:50:51.194Z,100951.69
2023-02-24T09:53:17.312Z,100954.28
2023-02-24T09:56:05.739Z,100943.34
2023-02-24T09:58:55.417Z,100934.88
2023-02-24T10:01:44.162Z,100869.41
2023-02-24T10:04:21.837Z,100937.63
2023-02-24T10:06:55.372Z,100918.44
2023-02-24T10:09:38.894Z,100933.97
2023-02-24T10:12:05.468Z,100938.09
2023-02-24T10:14:51.232Z,100937.38
2023-02-24T10:17:40.278Z,100881.75
2023-02-24T10:20:31.037Z,100929.88
2023-02-24T10:23:09.797Z,100913.28
2023-02-24T10:25:54.397Z,100909.22
2023-02-24T10:28:36.216Z,100901.50
2023-02-24T10:31:26.574Z,100890.00
2023-02-24T10:34:20.526Z,100906.16
2023-02-24T10:36:50.387Z,100896.09
2023-02-24T10:39:27.502Z,100855.91
2023-02-24T10:42:15.590Z,100868.22
2023-02-24T10:45:02.324Z,100879.59
2023-02-24T10:47:31.320Z,100879.22
2023-02-24T10:50:02.987Z,100870.09
2023-02-24T10:53:11.603Z,100852.97
2023-02-24T10:55:45.582Z,100869.75
2023-02-24T10:58:28.258Z,100835.00
2023-02-24T11:01:12.827Z,100863.59
2023-02-24T11:03:48.221Z,100874.66
2023-02-24T11:06:42.594Z,100871.31
2023-02-24T11:09:29.658Z,100865.28
2023-02-24T11:12:34.749Z,100809.25
2023-02-24T11:15:33.745Z,100847.69
2023-02-24T11:18:03.505Z,100839.91
2023-02-24T11:20:48.584Z,100822.41
2023-02-24T11:23:30.775Z,100829.31
2023-02-24T11:26:16.917Z,100832.13
2023-02-24T11:28:59.588Z,100814.16
2023-02-24T11:31:43.966Z,100819.81
2023-02-24T11:34:43.134Z,100815.50
2023-02-24T11:37:48.903Z,100832.75
2023-02-24T11:40:24.019Z,100809.13
2023-02-24T11:42:50.599Z,100808.47
2023-02-24T11:46:22.485Z,100818.47
2023-02-24T11:48:59.685Z,100756.91
2023-02-24T11:51:38.864Z,100801.47
2023-02-24T11:54:15.323Z,100792.59
2023-02-24T11:56:53.307Z,100763.31
2023-02-24T11:59:20.224Z,100803.44
2023-02-24T12:02:06.226Z,100785.72
2023-02-24T12:04:39.812Z,100775.84
2023-02-24T12:07:09.495Z,100778.91
2023-02-24T12:09:45.516Z,100731.91
2023-02-24T12:12:24.793Z,100770.41
2023-02-24T12:14:58.098Z,100759.56
2023-02-24T12:17:51.489Z,100759.31
2023-02-24T12:20:21.245Z,100751.44
2023-02-24T12:22:56.544Z,100751.56
2023-02-24T12:25:32.714Z,100739.13
2023-02-24T12:28:19.155Z,100737.28
2023-02-24T12:31:18.041Z,100742.06
2023-02-24T12:33:52.988Z,100742.91
2023-02-24T12:36:43.685Z,100735.63
2023-02-24T12:39:29.842Z,100708.69
2023-02-24T12:42:26.723Z,100730.97
2023-02-24T12:45:01.023Z,100721.59
2023-02-24T12:47:53.803Z,100728.91
2023-02-24T12:50:42.530Z,100723.81
2023-02-24T12:53:12.508Z,100714.31
2023-02-24T12:55:45.431Z,100713.31
2023-02-24T12:58:25.848Z,100714.94
2023-02-24T13:01:38.492Z,100709.25
2023-02-24T13:04:11.559Z,100706.16
2023-02-24T13:06:56.537Z,100706.75
2023-02-24T13:09:54.302Z,100689.34
2023-02-24T13:12:23.258Z,100682.88
2023-02-24T13:14:50.869Z,100690.44
2023-02-24T13:17:21.242Z,100686.91
2023-02-24T13:19:49.340Z,100613.47
2023-02-24T13:22:16.816Z,100689.03
2023-02-24T13:24:55.046Z,100682.34
2023-02-24T13:27:29.013Z,100665.59
2023-02-24T13:30:02.399Z,100657.31
2023-02-24T13:32:33.457Z,100643.81
2023-02-24T13:35:21.880Z,100629.75
2023-02-24T13:37:49.325Z,100665.44
2023-02-24T13:40:16.609Z,100658.75
2023-02-24T13:43:01.488Z,100652.50
2023-02-24T13:45:29.197Z,100659.06
2023-02-24T13:48:29.756Z,100642.34
2023-02-24T13:51:08.593Z,100634.53
2023-02-24T13:53:37.627Z,100649.59
2023-02-24T13:56:35.224Z,100644.19
2023-02-24T13:59:24.908Z,100654.06
2023-02-24T14:02:00.118Z,100624.16
2023-02-24T14:04:31.038Z,100626.56
2023-02-24T14:07:25.947Z,100631.75
2023-02-24T14:10:00.491Z,100611.75
2023-02-24T14:12:30.828Z,100596.53
2023-02-24T14:14:57.802Z,100558.16
2023-02-24T14:17:33.578Z,100572.78
2023-02-24T14:20:09.370Z,100605.69
2023-02-24T14:22:53.193Z,100596.22
2023-02-24T14:25:20.354Z,100615.66
2023-02-24T14:27:51.814Z,100608.81
2023-02-24T14:30:39.684Z,100614.38
2023-02-24T14:33:08.351Z,100623.94
2023-02-24T14:35:42.500Z,100611.38
2023-02-24T14:38:31.751Z,100607.34
2023-02-24T14:40:58.603Z,100594.91
2023-02-24T14:43:25.345Z,100600.47
2023-02-24T14:45:53.380Z,100600.16
2023-02-24T14:48:38.153Z,100615.75
2023-02-24T14:51:12.402Z,100605.88
2023-02-24T14:53:48.673Z,100619.19
2023-02-24T14:56:19.576Z,100596.44
2023-02-24T14:58:52.296Z,100610.94
2023-02-24T15:01:30.547Z,100602.19
2023-02-24T15:04:11.196Z,100594.44
2023-02-24T15:06:40.990Z,100607.63
2023-02-24T15:09:17.477Z,100614.22
2023-02-24T15:11:49.873Z,100595.56
2023-02-24T15:14:26.667Z,100616.16
2023-02-24T15:16:56.245Z,100615.31
2023-02-24T15:19:37.807Z,100616.31
2023-02-24T15:22:29.011Z,100613.88
2023-02-24T15:25:17.134Z,100592.16
2023-02-24T15:28:01.150Z,100588.28
2023-02-24T15:30:27.755Z,100590.00
2023-02-24T15:33:07.300Z,100602.75
2023-02-24T15:35:39.168Z,100569.50
2023-02-24T15:38:05.757Z,100576.13
2023-02-24T15:40:32.647Z,100589.28
2023-02-24T15:43:11.830Z,100568.66
2023-02-24T15:45:40.194Z,100597.41
2023-02-24T15:48:22.385Z,100575.97
2023-02-24T15:50:51.916Z,100568.63
2023-02-24T15:53:18.821Z,100408.00
2023-02-24T15:55:46.979Z,100585.06
2023-02-24T15:58:22.097Z,100565.88
2023-02-24T16:00:52.433Z,100574.59
2023-02-24T16:03:19.264Z,100568.66
2023-02-24T16:05:46.113Z,100566.34
2023-02-24T16:08:18.181Z,100566.63
2023-02-24T16:10:48.438Z,100584.09
2023-02-24T16:13:19.378Z,100579.97
2023-02-24T16:15:46.829Z,100569.25
2023-02-24T16:18:22.065Z,100584.72
2023-02-24T16:20:57.012Z,100579.81
2023-02-24T16:23:28.524Z,100575.09
2023-02-24T16:25:59.933Z,100584.94
2023-02-24T16:28:26.991Z,100547.66
2023-02-24T16:30:56.412Z,100588.19
2023-02-24T16:33:26.002Z,100591.59
2023-02-24T16:35:55.736Z,100586.44
2023-02-24T16:38:26.509Z,100571.13
2023-02-24T16:40:54.060Z,100590.03
2023-02-24T16:43:22.725Z,100582.72
2023-02-24T16:46:04.083Z,100589.72
2023-02-24T16:48:36.769Z,100526.34
2023-02-24T16:51:06.529Z,100604.09
2023-02-24T16:53:33.358Z,100526.44
2023-02-24T16:56:00.287Z,100600.91
2023-02-24T16:58:27.081Z,100587.00
2023-02-24T17:00:59.206Z,100600.16
2023-02-24T17:03:31.257Z,100596.53
2023-02-24T17:05:57.912Z,100609.81
2023-02-24T17:08:24.911Z,100630.63
2023-02-24T17:10:52.089Z,100601.69
2023-02-24T17:13:20.924Z,100640.25
2023-02-24T17:15:47.887Z,100637.56
2023-02-24T17:18:14.469Z,100623.72
2023-02-24T17:20:42.516Z,100641.81
2023-02-24T17:23:11.452Z,100619.44
2023-02-24T17:25:40.413Z,100634.78
2023-02-24T17:28:07.603Z,100656.72
2023-02-24T17:30:37.371Z,100647.13
2023-02-24T17:33:04.354Z,100645.66
2023-02-24T17:35:31.201Z,100644.34
2023-02-24T17:37:58.090Z,100644.22
2023-02-24T17:40:27.219Z,100622.47
2023-02-24T17:42:56.141Z,100450.75
2023-02-24T17:45:22.765Z,100633.34
2023-02-24T17:47:49.545Z,100648.06
2023-02-24T17:50:16.944Z,100667.88
2023-02-24T17:52:46.097Z,100672.22
2023-02-24T17:55:12.653Z,100671.38
2023-02-24T17:57:39.891Z,100665.47
2023-02-24T18:00:08.669Z,100667.75
2023-02-24T18:02:35.695Z,100648.31
2023-02-24T18:05:02.839Z,100669.50
2023-02-24T18:07:29.564Z,100662.75
2023-02-24T18:09:56.189Z,100683.03
2023-02-24T18:12:25.322Z,100692.88
2023-02-24T18:15:06.913Z,100685.00
2023-02-24T18:17:40.090Z,100693.25
2023-02-24T18:20:08.339Z,100689.19
2023-02-24T18:22:35.490Z,100685.75
2023-02-24T18:25:05.178Z,100691.66
2023-02-24T18:27:31.779Z,100700.66
2023-02-24T18:29:58.415Z,100706.78
2023-02-24T18:32:25.154Z,100673.94
2023-02-24T18:34:51.926Z,100696.22
2023-02-24T18:37:22.205Z,100698.66
2023-02-24T18:39:53.403Z,100703.34
2023-02-24T18:42:20.071Z,100721.66
2023-02-24T18:44:48.746Z,100702.97
2023-02-24T18:47:15.365Z,100700.38
2023-02-24T18:49:42.062Z,100722.94
2023-02-24T18:52:08.656Z,100707.41
2023-02-24T18:54:35.310Z,100738.97
2023-02-24T18:57:02.176Z,100720.59
2023-02-24T18:59:29.273Z,100713.94
2023-02-24T19:01:58.361Z,100701.41
2023-02-24T19:04:27.511Z,100724.78
2023-02-24T19:06:56.375Z,100720.69
2023-02-24T19:20:55.937Z,100732.00
2023-02-24T19:23:22.909Z,100724.13
2023-02-24T19:25:52.025Z,100707.97
2023-02-24T19:28:21.072Z,100717.56
2023-02-24T19:30:47.976Z,100708.81
2023-02-24T19:33:14.709Z,100690.09
2023-02-24T19:35:42.724Z,100733.28
2023-02-24T19:38:16.977Z,100729.19
2023-02-24T19:40:45.024Z,100720.31
2023-02-24T19:43:11.645Z,100738.50
2023-02-24T19:45:47.164Z,100716.44
2023-02-24T19:48:18.573Z,100738.44
2023-02-24T19:50:50.044Z,100732.41
2023-02-24T19:53:18.944Z,100724.59
2023-02-24T19:55:49.902Z,100731.09
2023-02-24T19:58:16.530Z,100721.84
2023-02-24T20:00:45.703Z,100730.69
2023-02-24T20:03:14.487Z,100739.97
2023-02-24T20:05:43.674Z,100746.91
2023-02-24T20:08:12.590Z,100721.31
2023-02-24T20:10:39.197Z,100754.22
2023-02-24T20:13:05.883Z,100751.91
2023-02-24T20:15:33.547Z,100748.88
2023-02-24T20:18:04.664Z,100749.72
2023-02-24T20:20:31.326Z,100743.34
2023-02-24T20:22:57.965Z,100731.13
2023-02-24T20:25:24.593Z,100742.34
2023-02-24T20:27:53.724Z,100762.31
2023-02-24T20:30:20.406Z,100745.44
2023-02-24T20:32:47.196Z,100757.44
2023-02-24T20:35:16.298Z,100710.47
2023-02-24T20:37:45.264Z,100742.16
2023-02-24T20:40:14.638Z,100710.13
2023-02-24T20:42:41.288Z,100754.38
2023-02-24T20:45:12.966Z,100771.78
2023-02-24T20:47:39.590Z,100761.31
2023-02-24T20:50:06.612Z,100744.16
2023-02-24T20:52:34.344Z,100689.00
2023-02-24T20:55:00.891Z,100765.88
2023-02-24T20:57:30.449Z,100800.13
2023-02-24T21:00:03.481Z,100776.81
2023-02-24T21:02:30.525Z,100795.78
2023-02-24T21:04:59.279Z,100774.63
2023-02-24T21:07:31.759Z,100790.91
2023-02-24T21:09:58.481Z,100799.19
2023-02-24T21:12:27.691Z,100781.81
2023-02-24T21:14:54.321Z,100756.59
2023-02-24T21:17:21.069Z,100779.75
2023-02-24T21:19:50.029Z,100785.53
2023-02-24T21:22:16.697Z,100787.28
2023-02-24T21:24:43.576Z,100807.69
2023-02-24T21:27:12.382Z,100809.53
2023-02-24T21:29:38.950Z,100801.44
2023-02-24T21:32:05.722Z,100783.84
2023-02-24T21:34:32.541Z,100785.78
2023-02-24T21:37:01.693Z,100808.34
2023-02-24T21:39:28.313Z,100795.78
2023-02-24T21:41:55.054Z,100783.31
2023-02-24T21:44:24.071Z,100815.19
2023-02-24T21:46:50.726Z,100806.03
2023-02-24T21:49:18.269Z,100816.78
2023-02-24T21:51:50.678Z,100822.38
2023-02-24T21:54:17.628Z,100812.88
2023-02-24T21:56:44.305Z,100821.75
2023-02-24T21:59:15.779Z,100801.31
2023-02-24T22:01:44.091Z,100812.41
2023-02-24T22:04:18.827Z,100847.63
2023-02-24T22:06:45.637Z,100780.25
2023-02-24T22:09:19.284Z,100813.44
2023-02-24T22:11:50.363Z,100819.16
2023-02-24T22:14:20.483Z,100807.81
2023-02-24T22:16:47.137Z,100807.28
2023-02-24T22:19:14.270Z,100796.81
2023-02-24T22:21:43.734Z,100823.63
2023-02-24T22:24:15.177Z,100801.88
2023-02-24T22:26:42.914Z,100832.44
2023-02-24T22:29:10.350Z,100816.03
2023-02-24T22:31:38.221Z,100828.28
2023-02-24T22:34:05.733Z,100823.53
2023-02-24T22:36:36.756Z,100823.44
2023-02-24T22:39:04.809Z,100819.47
2023-02-24T22:41:33.946Z,100796.53
2023-02-24T22:44:04.597Z,100817.31
2023-02-24T22:46:34.182Z,100795.53
2023-02-24T22:49:05.101Z,100771.66
2023-02-24T22:51:34.265Z,100781.16
2023-02-24T22:54:04.747Z,100773.06
2023-02-24T22:56:35.175Z,100832.97
2023-02-24T22:59:01.805Z,100801.88
2023-02-24T23:01:32.104Z,100833.81
2023-02-24T23:04:03.052Z,100834.56
2023-02-24T23:06:33.040Z,100775.25
2023-02-24T23:09:01.027Z,100826.94
2023-02-24T23:11:39.947Z,100840.97
2023-02-24T23:14:10.050Z,100854.25
2023-02-24T23:16:40.766Z,100846.25
2023-02-24T23:19:13.130Z,100821.84
2023-02-24T23:21:41.462Z,100823.56
2023-02-24T23:24:12.368Z,100845.16
2023-02-24T23:26:45.943Z,100815.56
2023-02-24T23:29:17.238Z,100815.47
2023-02-24T23:31:45.249Z,100815.81
2023-02-24T23:34:12.405Z,100840.44
2023-02-24T23:36:41.830Z,100834.16
2023-02-24T23:39:10.014Z,100836.34
2023-02-24T23:41:37.285Z,100831.63
2023-02-24T23:44:05.364Z,100858.38
2023-02-24T23:46:34.753Z,100819.94
2023-02-24T23:49:04.830Z,100855.84
2023-02-24T23:51:50.133Z,100836.81
2023-02-24T23:54:22.098Z,100870.63
2023-02-24T23:56:48.716Z,100872.56
2023-02-24T23:59:18.156Z,100858.84
